Avondale, Louisiana
Current Conditions -  °F | °C
As of 2:53 AM on Wednesday 22 Oct 2014 (Local Time) from KMSY Reporting Station
Few Clouds Few Clouds  
Wind Chill: 67°   Ceiling: Unl
Heat Index: 67°   Visibility: 10mi
Dew Point: 59°   Wind: 6mph
Humidity: 76%   Direction: 40°NE
Pressure: 30.02"   Gusts: NA
Location:  29.9137°N, 90.2078°W
Report Text: KMSY 220753Z 04005KT 10SM FEW250 19/15 A3002 RMK AO2 SLP168 T01940150
Loading
Personal Weather Stations






























Interactive Weather Map
Tropical Storm Tracking
New forecast layout! Learn more

10-Day Weather Forecast

Advertisements
Track Severe Weather on mobile